ฉงชิ่ง, Chongqing

09:11 PM CST วัน พฤษภาคม 25, 2015 (GMT +0800)
Jiangbei | | Change Station
CLOSE
Current Station
Airport
Location: Chongqing,
Elevation: 1152 ft
Nearby Weather Stations

Elev 1152 ft 29.52 °N, 106.48 °E | Updated 11 minutes ago

Scattered Clouds
มีเมฆคลุมเป็นบางส่วน
70 ฟาเรนไฮน์
Feels Like 70 ฟาเรนไฮน์
N
9
ลม ความผันแปร ลม from ทางทิศเหนือและทิศตะวันออกเฉียงเหนือ

วันนี้
High -- | Low -- ฟาเรนไฮน์
--% Chance of Precip.
Yesterday
High -- | Low -- ฟาเรนไฮน์
Precip. -- นิ้ว
5:55 AM 7:45 PM
เดือนเสี้ยว, 48% visible
ความดัน 29.77 นิ้ว
ทัศนวิสัย 6.2 ไมล์
เมฆ มีเมฆคลุมเป็นบางส่วน 2600 ft
อุณหภูมิที่อากาศอาจจับตัวเป็นหยาดน้ำค้าง 61 ฟาเรนไฮน์
ความชื้น 73%
Rainfall 0.00 นิ้ว
Snow Depth Not available.
UV 0 out of 12
Pollen Not available.
Air Quality Not available.
Flu Activity Not available.
METAR ZUCK 251300Z 02004MPS 9999 SCT026 21/16 Q1008 NOSIG

More Conditions Fewer Conditions

ความดัน 29.77 นิ้ว
ทัศนวิสัย 6.2 ไมล์
เมฆ มีเมฆคลุมเป็นบางส่วน 2600 ft
อุณหภูมิที่อากาศอาจจับตัวเป็นหยาดน้ำค้าง 61 ฟาเรนไฮน์
ความชื้น 73%
Rainfall 0.00 นิ้ว
Snow Depth Not available.
UV 0 out of 12
Pollen Not available.
Air Quality Not available.
Flu Activity Not available.
METAR ZUCK 251300Z 02004MPS 9999 SCT026 21/16 Q1008 NOSIG

More Conditions Fewer Conditions

10-Day Weather Forecast

Almanac

ดาราศาสตร์

May. 25, 2015 Rise Set
Actual Time
Civil Twilight
Nautical Twilight
Astronomical Twilight
Moon
Length Of Visible Light
ความยาวของวัน
Tomorrow will be .
, % of the Moon is Illuminated

Today's Extremes

Country Highs Country Lows

Community

WunderPhotos

Upload Photos

1,823,993 photos uploaded!

WunderBlogs® & News

Nearby

Air Quality

  Air Quality AQ Index Pollutant
Not available.

Snow Depth

Station Depth Elevation

Earthquake Activity

City Distance Mag. Time & Date
Minimum magnitude displayed is 2.5.

Coastal Water Temperatures

สถานที่ อุณหภูมิ

Stations

Nearby Weather Stations

Station Location Temp ลมหนาว อุณหภูมิที่อากาศอาจจับตัวเป็นหยาดน้ำค้าง ความชื้น ลม Precip. Elev ปรับปรุงล่าสุด Type